Creek Data

    Home     View Charts     View Raw Data     Messages

ID Distance Battery Voltage Battery Current Internal Temp Internal Humidity External Temp Solar Input rssi snr Time Stamp Record
66941 11.7 3.67 -5 45 53 48 0 -72 7 02/21/2026 08:15 PM 49771
66940 11.6 3.66 -5 47 53 48 0 -71 9 02/21/2026 08:00 PM 49770
66939 11.6 3.82 -5 47 54 50 0 -71 8 02/21/2026 07:45 PM 49769
66938 11.6 3.67 -5 47 55 49 0 -72 7 02/21/2026 07:30 PM 49768
66937 11.6 3.83 -5 47 55 50 0 -71 9 02/21/2026 07:15 PM 49767
66936 11.6 3.68 -5 48 56 50 0 -71 8 02/21/2026 07:00 PM 49766
66935 11.6 3.65 -5 49 57 51 0.1 -71 9 02/21/2026 06:45 PM 49765
66934 11.6 3.82 -5 50 59 51 0 -72 8 02/21/2026 06:30 PM 49764
66933 11.6 3.65 -5 52 60 51 0.1 -72 8 02/21/2026 06:15 PM 49763
66932 11.6 3.68 -6 55 59 52 1.5 -72 8 02/21/2026 06:00 PM 49762
66931 11.6 3.66 0 60 58 55 4.5 -71 8 02/21/2026 05:45 PM 49761
66930 11.6 3.97 0 65 54 58 4.5 -71 8 02/21/2026 05:30 PM 49760
66929 11.7 3.81 0 65 55 61 5.1 -72 7 02/21/2026 05:15 PM 49759
66928 11.7 3.85 0 66 56 61 5.1 -71 7 02/21/2026 05:00 PM 49758
66927 11.7 3.81 0 68 56 61 5.1 -71 8 02/21/2026 04:45 PM 49757
66926 11.7 4.00 0 71 55 61 5.1 -72 7 02/21/2026 04:30 PM 49756
66925 11.7 3.81 0 75 52 64 5.1 -71 7 02/21/2026 04:15 PM 49755
66924 11.7 3.81 0 78 49 66 5.1 -72 8 02/21/2026 04:00 PM 49754
66923 11.7 3.81 0 79 48 64 5.1 -71 8 02/21/2026 03:45 PM 49753
66922 11.7 3.81 0 79 48 65 5.1 -72 8 02/21/2026 03:30 PM 49752
66921 11.7 3.81 0 79 47 66 5.1 -72 8 02/21/2026 03:15 PM 49751
66920 11.7 3.81 0 78 46 64 5.1 -71 7 02/21/2026 03:00 PM 49750
66919 11.7 3.81 0 78 45 64 5.1 -71 7 02/21/2026 02:45 PM 49749
66918 11.7 3.81 0 76 46 62 5.1 -72 7 02/21/2026 02:30 PM 49748
66917 11.7 3.81 0 75 45 63 5.1 -72 8 02/21/2026 02:15 PM 49747